WetterOnline ( http://www.wetteronline.de )

Wetter aktuell Potsdam

Aktuelles Wetter: Potsdam (100m)

6-stündlich | Neueste Meldungen
Ortszeit Temperatur Wetter
Mi, 23.01. 1:00 -6.4° C leicht bewölkt
Di, 22.01. 19:00 -3.7° C fast wolkenlos
Di, 22.01. 13:00 -1.0° C fast wolkenlos
Di, 22.01. 7:00 -5.2° C wolkig
Di, 22.01. 1:00 -5.4° C leicht bewölkt
Mo, 21.01. 19:00 -4.1° C leicht bewölkt
Mo, 21.01. 13:00 -2.9° C wolkig
Mo, 21.01. 7:00 -4.2° C bedeckt
Ortszeit Temperatur Wetter
Mi, 23.01. 1:30 -6.5° C leicht bewölkt
Mi, 23.01. 1:10 -6.4° C wolkig
Mi, 23.01. 1:00 -6.4° C leicht bewölkt
Mi, 23.01. 0:40 -6.4° C wolkig
Mi, 23.01. 0:30 -6.3° C leicht bewölkt
Mi, 23.01. 0:20 -6.3° C wolkig
Mi, 23.01. 0:00 -6.4° C leicht bewölkt
Di, 22.01. 23:30 -6.0° C leicht bewölkt
Di, 22.01. 23:00 -5.8° C leicht bewölkt
Di, 22.01. 22:30 -5.3° C leicht bewölkt
Ortszeit Relative Feuchte Sichtweite
Mi, 23.01. 1:00 90% 10 km
Di, 22.01. 19:00 83% 13 km
Di, 22.01. 13:00 66% 18 km
Di, 22.01. 7:00 91% 3.5 km
Di, 22.01. 1:00 92% 6 km
Mo, 21.01. 19:00 92% 5.0 km
Mo, 21.01. 13:00 83% 7 km
Mo, 21.01. 7:00 93% 4.5 km
Ortszeit Relative Feuchte Sichtweite
Mi, 23.01. 1:30 91% 10 km
Mi, 23.01. 1:10 90% -
Mi, 23.01. 1:00 90% 10 km
Mi, 23.01. 0:40 90% -
Mi, 23.01. 0:30 90% 12 km
Mi, 23.01. 0:20 90% -
Mi, 23.01. 0:00 90% 12 km
Di, 22.01. 23:30 89% 12 km
Di, 22.01. 23:00 89% 12 km
Di, 22.01. 22:30 88% 12 km
Ortszeit Niederschlagsmenge Niederschlagsart
Mi, 23.01. 1:00 0.0 l/m2 in 6 Std. -
Di, 22.01. 19:00 0.0 l/m2 in 12 Std. -
Di, 22.01. 13:00 0.0 l/m2 in 6 Std. -
Di, 22.01. 7:00 0.0 l/m2 in 12 Std. -
Di, 22.01. 1:00 0.0 l/m2 in 6 Std. -
Mo, 21.01. 19:00 0.0 l/m2 in 12 Std. -
Mo, 21.01. 13:00 0.0 l/m2 in 6 Std. -
Mo, 21.01. 7:00 0.0 l/m2 in 12 Std. -
Ortszeit Niederschlagsmenge Niederschlagsart
Mi, 23.01. 1:30 0.0 l/m2 in 1 Std. -
Mi, 23.01. 1:10 keine Meldung -
Mi, 23.01. 1:00 0.0 l/m2 in 1 Std. -
Mi, 23.01. 0:40 keine Meldung -
Mi, 23.01. 0:30 0.0 l/m2 in 1 Std. -
Mi, 23.01. 0:20 keine Meldung -
Mi, 23.01. 0:00 0.0 l/m2 in 1 Std. -
Di, 22.01. 23:30 0.0 l/m2 in 1 Std. -
Di, 22.01. 23:00 0.0 l/m2 in 1 Std. -
Di, 22.01. 22:30 0.0 l/m2 in 1 Std. -
Ortszeit Stärke Spitze Richtung
km/h Bft. km/h Grad Sektor
Mi, 23.01. 1:00 14 3 29 110° O
Di, 22.01. 19:00 13 3 28 130° SO
Di, 22.01. 13:00 11 2 18 150° SO
Di, 22.01. 7:00 7 2 18 160° S
Di, 22.01. 1:00 14 3 25 210° SW
Mo, 21.01. 19:00 9 2 31 190° S
Mo, 21.01. 13:00 9 2 19 200° S
Mo, 21.01. 7:00 7 2 14 210° SW
Ortszeit Stärke Spitze Richtung
km/h Bft. km/h Grad Sektor
Mi, 23.01. 1:30 15 3 31 110° O
Mi, 23.01. 1:10 17 3 - 110° O
Mi, 23.01. 1:00 14 3 29 110° O
Mi, 23.01. 0:40 14 3 - 120° SO
Mi, 23.01. 0:30 17 3 28 110° O
Mi, 23.01. 0:20 17 3 - 110° O
Mi, 23.01. 0:00 13 3 26 110° O
Di, 22.01. 23:30 11 2 25 130° SO
Di, 22.01. 23:00 14 3 25 120° SO
Di, 22.01. 22:30 14 3 25 120° SO
Ortszeit Untergrenze Bedeckung Gattung
total tief tief mittel hoch
Mi, 23.01. 1:00 8700 m 2/8 0/8 - - Ci
Di, 22.01. 19:00 9000 m 1/8 0/8 - - Ci
Di, 22.01. 13:00 6900 m 1/8 1/8 - - Ci
Di, 22.01. 7:00 600 m 5/8 4/8 Sc Ac -
Di, 22.01. 1:00 1200 m 2/8 2/8 Sc - -
Mo, 21.01. 19:00 2700 m 3/8 3/8 - As -
Mo, 21.01. 13:00 150 m 6/8 3/8 Cu - Ci
Mo, 21.01. 7:00 120 m 8/8 8/8 St - -
Ortszeit Bedeckungsgrad in Achtel und Wolkenuntergrenze
Mi, 23.01. 1:30 3(180m)
Mi, 23.01. 1:10 7(7800m) 8(8700m)
Mi, 23.01. 1:00 2(8700m) 8(8700m)
Mi, 23.01. 0:40 8(8100m) 8(8700m)
Mi, 23.01. 0:30 2(8400m) 7(8700m)
Mi, 23.01. 0:20 7(8400m) 7(9000m)
Mi, 23.01. 0:00 2(8400m) 7(9000m)
Di, 22.01. 23:30 2(8700m) 8(9000m)
Di, 22.01. 23:00 2(9000m) 7(8700m) 8(9000m)
Di, 22.01. 22:30 2(9000m)
Ortszeit Luftdruck NN (hPa) Tendenz (hPa in 3 Std.)
Mi, 23.01. 1:00 1006 - 0,9
Di, 22.01. 19:00 1009 - 1,4
Di, 22.01. 13:00 1012 - 1,8
Di, 22.01. 7:00 1015 - 1,3
Di, 22.01. 1:00 1018 - 1,2
Mo, 21.01. 19:00 1020 - 0,7
Mo, 21.01. 13:00 1023 - 1,3
Mo, 21.01. 7:00 1024 - 0,6
Ortszeit Luftdruck NN (hPa) Tendenz (hPa in 3 Std.)
Mi, 23.01. 1:30 1006 - 1,1
Mi, 23.01. 1:10 1006 keine Meldung
Mi, 23.01. 1:00 1006 - 0,9
Mi, 23.01. 0:40 1007 keine Meldung
Mi, 23.01. 0:30 1007 - 0,7
Mi, 23.01. 0:20 1007 keine Meldung
Mi, 23.01. 0:00 1007 - 0,9
Di, 22.01. 23:30 1007 - 1,1
Di, 22.01. 23:00 1007 - 1,2
Di, 22.01. 22:30 1007 - 1,3
Ortszeit Schneehöhe (cm)
Mi, 23.01. 1:00 -
Di, 22.01. 19:00 -
Di, 22.01. 13:00 -
Di, 22.01. 7:00 -
Di, 22.01. 1:00 -
Mo, 21.01. 19:00 -
Mo, 21.01. 13:00 -
Mo, 21.01. 7:00 0
Ortszeit Schneehöhe (cm)
Mi, 23.01. 1:30 -
Mi, 23.01. 1:10 -
Mi, 23.01. 1:00 -
Mi, 23.01. 0:40 -
Mi, 23.01. 0:30 -
Mi, 23.01. 0:20 -
Mi, 23.01. 0:00 -
Di, 22.01. 23:30 -
Di, 22.01. 23:00 -
Di, 22.01. 22:30 -
Link zu dieser Seite / Seite empfehlen

Das Wetter in ...